Time;durP1;ratioP1;P1;durP2;ratioP2;P2;SDS_P1;SDS_P2;PMS_P1;PMS_P2;Temp;Humidity;BMP_temperature;BMP_pressure;BME280_temperature;BME280_humidity;BME280_pressure;Samples;Min_cycle;Max_cycle;Signal;HPM_P1;HPM_P2
2022/05/25 00:00:45;;;;;;;5.80;3.33;;;11.40;99.90;;;;;;5020504;28;20041;-68
2022/05/25 00:03:11;;;;;;;5.43;2.72;;;11.40;99.90;;;;;;5024275;28;20041;-67
2022/05/25 00:05:38;;;;;;;6.10;3.20;;;11.40;99.90;;;;;;5022258;28;20120;-68
2022/05/25 00:08:04;;;;;;;;;;;11.40;99.90;;;;;;5029626;28;20037;-67
2022/05/25 00:10:30;;;;;;;5.63;3.33;;;11.40;99.90;;;;;;5005357;28;20401;-67
2022/05/25 00:12:55;;;;;;;6.43;3.83;;;11.40;99.90;;;;;;5021405;28;20513;-68
2022/05/25 00:15:21;;;;;;;5.93;3.23;;;11.40;99.90;;;;;;5021085;28;20056;-71
2022/05/25 00:17:47;;;;;;;5.87;3.30;;;11.40;99.90;;;;;;5021219;28;20045;-71
2022/05/25 00:20:13;;;;;;;5.97;3.50;;;11.30;99.90;;;;;;4998689;28;20617;-68
2022/05/25 00:22:42;;;;;;;4.88;3.50;;;11.40;99.90;;;;;;4997492;28;20042;-68
2022/05/25 00:25:10;;;;;;;5.38;3.50;;;11.40;99.90;;;;;;5018374;28;20185;-68
2022/05/25 00:27:35;;;;;;;5.57;3.60;;;11.30;99.90;;;;;;5023221;28;20037;-67
2022/05/25 00:30:02;;;;;;;8.20;4.13;;;11.30;99.90;;;;;;5004177;28;20053;-68
2022/05/25 00:32:27;;;;;;;6.40;3.88;;;11.30;99.90;;;;;;5018646;28;20037;-68
2022/05/25 00:34:53;;;;;;;7.07;3.17;;;11.30;99.90;;;;;;5011984;28;20300;-68
2022/05/25 00:37:19;;;;;;;6.93;3.90;;;11.30;99.90;;;;;;5020976;28;20091;-68
2022/05/25 00:39:44;;;;;;;9.00;3.73;;;11.30;99.90;;;;;;5023774;28;20068;-68
2022/05/25 00:42:10;;;;;;;5.28;3.38;;;11.30;99.90;;;;;;5024113;28;20427;-68
2022/05/25 00:44:36;;;;;;;6.90;4.23;;;11.30;99.90;;;;;;5022177;28;20055;-68
2022/05/25 00:47:02;;;;;;;6.57;4.18;;;11.30;99.90;;;;;;5025296;28;20029;-68
2022/05/25 00:49:31;;;;;;;6.78;3.60;;;11.20;99.90;;;;;;5005606;28;20053;-69
2022/05/25 00:52:08;;;;;;;7.47;4.18;;;11.20;99.90;;;;;;5002030;28;20053;-68
2022/05/25 00:54:39;;;;;;;6.57;3.92;;;11.20;99.90;;;;;;5005193;28;20041;-70
2022/05/25 00:57:10;;;;;;;5.50;3.63;;;11.10;99.90;;;;;;5002342;28;20797;-73
2022/05/25 01:00:03;;;;;;;10.35;4.50;;;11.20;99.90;;;;;;5025085;28;20109;-69
2022/05/25 01:02:29;;;;;;;6.28;3.88;;;11.10;99.90;;;;;;5011789;28;20293;-68
2022/05/25 01:04:55;;;;;;;;;;;11.10;99.90;;;;;;5024692;28;20038;-67
2022/05/25 01:08:07;;;;;;;6.57;4.20;;;11.10;99.90;;;;;;5027868;28;19917;-67
2022/05/25 01:10:47;;;;;;;6.72;3.78;;;11.10;99.90;;;;;;5027268;28;20490;-68
2022/05/25 01:14:13;;;;;;;7.32;4.50;;;11.10;99.90;;;;;;5013591;23;20592;-84
2022/05/25 01:17:10;;;;;;;7.22;4.00;;;11.10;99.90;;;;;;4934654;28;21611;-83
2022/05/25 01:20:34;;;;;;;7.95;4.47;;;11.10;99.90;;;;;;4926817;28;20051;-84
2022/05/25 01:34:12;;;;;;;;;;;11.10;99.90;;;;;;4990335;22;20065;-69
2022/05/25 01:37:07;;;;;;;6.50;3.78;;;11.00;99.90;;;;;;5005966;28;20070;-69
2022/05/25 01:39:40;;;;;;;6.68;3.90;;;11.00;99.90;;;;;;4976586;28;20034;-69
2022/05/25 01:42:14;;;;;;;7.50;4.43;;;11.00;99.90;;;;;;4977256;28;20043;-69
2022/05/25 01:44:44;;;;;;;7.60;4.20;;;10.90;99.90;;;;;;4981291;28;20116;-69
2022/05/25 01:47:11;;;;;;;6.18;4.22;;;11.00;99.90;;;;;;4987847;28;20045;-69
2022/05/25 01:49:50;;;;;;;;;;;10.90;99.90;;;;;;4985062;28;20518;-69
2022/05/25 01:52:21;;;;;;;7.25;4.05;;;10.90;99.90;;;;;;4986093;28;19921;-69
2022/05/25 01:54:53;;;;;;;7.80;4.40;;;10.90;99.90;;;;;;4972439;28;20046;-70
2022/05/25 01:57:23;;;;;;;8.05;4.53;;;10.80;99.90;;;;;;4976047;28;20064;-69
2022/05/25 01:59:49;;;;;;;5.32;4.07;;;10.90;99.90;;;;;;4980100;28;20054;-70
2022/05/25 02:05:04;;;;;;;7.05;4.40;;;10.80;99.90;;;;;;4982265;28;20368;-69
2022/05/25 02:07:51;;;;;;;8.43;4.80;;;10.70;99.90;;;;;;4987835;28;20061;-70
2022/05/25 02:10:23;;;;;;;7.60;4.50;;;10.80;99.90;;;;;;4979012;28;20041;-69
2022/05/25 02:13:18;;;;;;;8.55;5.25;;;10.70;99.90;;;;;;4983873;28;20200;-69
2022/05/25 02:16:03;;;;;;;8.43;4.90;;;10.70;99.90;;;;;;4977799;28;20038;-69
2022/05/25 02:18:57;;;;;;;8.55;5.13;;;10.70;99.90;;;;;;4984196;28;20074;-69
2022/05/25 02:21:37;;;;;;;8.48;4.18;;;10.70;99.90;;;;;;4986173;28;20049;-69
2022/05/25 02:24:11;;;;;;;8.52;5.20;;;10.70;99.90;;;;;;4981736;28;20042;-69
2022/05/25 02:26:47;;;;;;;7.43;4.38;;;10.70;99.90;;;;;;4987597;28;20207;-69
2022/05/25 02:29:25;;;;;;;8.05;5.10;;;10.70;99.90;;;;;;4984548;28;20121;-69
2022/05/25 02:32:11;;;;;;;7.32;4.80;;;10.70;99.90;;;;;;4978018;28;20625;-69
2022/05/25 02:34:39;;;;;;;9.10;4.47;;;10.60;99.90;;;;;;4985716;28;20134;-69
2022/05/25 02:37:06;;;;;;;8.20;4.78;;;10.70;99.90;;;;;;4984177;28;20089;-69
2022/05/25 02:39:32;;;;;;;9.02;4.43;;;10.60;99.90;;;;;;4979748;28;20045;-69
2022/05/25 02:41:58;;;;;;;7.53;4.77;;;10.60;99.90;;;;;;4978049;28;20049;-69
2022/05/25 02:44:24;;;;;;;11.18;5.47;;;10.60;99.90;;;;;;4981800;28;20390;-69
2022/05/25 02:46:50;;;;;;;7.45;4.22;;;10.60;99.90;;;;;;4983823;28;20061;-70
2022/05/25 02:49:16;;;;;;;9.25;4.93;;;10.60;99.90;;;;;;4992816;28;20042;-70
2022/05/25 02:51:42;;;;;;;;;;;10.60;99.90;;;;;;4981705;28;20070;-69
2022/05/25 02:54:08;;;;;;;7.82;4.55;;;10.60;99.90;;;;;;4984115;28;20417;-69
2022/05/25 02:56:34;;;;;;;9.95;4.50;;;10.60;99.90;;;;;;4987891;28;20039;-69
2022/05/25 02:59:00;;;;;;;8.65;4.72;;;10.60;99.90;;;;;;4982693;28;20107;-69
2022/05/25 03:01:26;;;;;;;8.35;4.97;;;10.60;99.90;;;;;;4974417;28;20031;-69
2022/05/25 03:03:52;;;;;;;10.35;5.90;;;10.60;99.90;;;;;;4986071;28;20044;-69
2022/05/25 03:06:18;;;;;;;11.43;5.90;;;10.60;99.90;;;;;;4977405;28;20042;-69
2022/05/25 03:08:44;;;;;;;9.45;5.32;;;10.60;99.90;;;;;;4966071;28;20050;-69
2022/05/25 03:11:10;;;;;;;10.10;5.82;;;10.60;99.90;;;;;;4977970;28;20077;-69
2022/05/25 03:13:36;;;;;;;9.45;5.85;;;10.60;99.90;;;;;;4979834;28;20404;-69
2022/05/25 03:16:04;;;;;;;10.13;6.03;;;10.50;99.90;;;;;;4978431;28;20042;-70
2022/05/25 03:18:30;;;;;;;9.77;5.38;;;10.60;99.90;;;;;;4986517;28;20674;-70
2022/05/25 03:20:56;;;;;;;11.23;6.05;;;10.50;99.90;;;;;;4974274;28;20221;-70
2022/05/25 03:23:22;;;;;;;11.03;5.73;;;10.50;99.90;;;;;;4979379;28;20042;-70
2022/05/25 03:25:48;;;;;;;11.70;6.07;;;10.50;99.90;;;;;;4980175;28;20507;-70
2022/05/25 03:28:14;;;;;;;14.35;6.40;;;10.50;99.90;;;;;;4985280;28;20052;-70
2022/05/25 03:30:41;;;;;;;13.40;6.43;;;10.50;99.90;;;;;;4979532;28;20070;-70
2022/05/25 03:33:07;;;;;;;13.20;6.38;;;10.50;99.90;;;;;;4981593;28;20137;-69
2022/05/25 03:35:33;;;;;;;12.40;6.50;;;10.50;99.90;;;;;;4989224;28;20130;-70
2022/05/25 03:37:58;;;;;;;13.20;7.17;;;10.50;99.90;;;;;;4995915;28;20042;-70
2022/05/25 03:40:25;;;;;;;11.97;6.60;;;10.50;99.90;;;;;;4974532;28;20408;-70
2022/05/25 03:42:50;;;;;;;12.82;5.55;;;10.50;99.90;;;;;;4978407;28;20042;-70
2022/05/25 03:45:17;;;;;;;13.05;7.85;;;10.40;99.90;;;;;;4975489;28;20042;-70
2022/05/25 03:47:43;;;;;;;14.70;7.00;;;10.40;99.90;;;;;;4981368;28;20045;-70
2022/05/25 03:50:09;;;;;;;14.38;7.53;;;10.40;99.90;;;;;;4976381;28;20038;-71
2022/05/25 03:52:36;;;;;;;12.80;6.85;;;10.40;99.90;;;;;;4984932;28;20050;-70
2022/05/25 03:55:03;;;;;;;14.95;6.68;;;10.40;99.90;;;;;;4982636;28;20069;-70
2022/05/25 03:57:28;;;;;;;;;;;10.40;99.90;;;;;;4979903;28;20133;-70
2022/05/25 03:59:54;;;;;;;14.20;7.82;;;10.30;99.90;;;;;;4969457;28;19969;-70
2022/05/25 04:02:20;;;;;;;16.92;7.18;;;10.40;99.90;;;;;;4982031;28;20051;-70
2022/05/25 04:04:45;;;;;;;18.40;7.33;;;10.40;99.90;;;;;;4972776;28;20039;-70
2022/05/25 04:07:11;;;;;;;11.70;6.70;;;10.30;99.90;;;;;;4958371;28;20046;-70
2022/05/25 04:09:37;;;;;;;11.65;6.88;;;10.30;99.90;;;;;;4970936;28;20041;-70
2022/05/25 04:12:03;;;;;;;12.17;7.43;;;10.30;99.90;;;;;;4977045;28;20128;-70
2022/05/25 04:14:28;;;;;;;10.85;6.90;;;10.40;99.90;;;;;;4975597;28;20412;-70
2022/05/25 04:16:54;;;;;;;13.50;7.37;;;10.30;99.90;;;;;;4977881;28;20056;-70
2022/05/25 04:19:20;;;;;;;13.67;7.53;;;10.40;99.90;;;;;;4977352;28;20577;-66
2022/05/25 04:21:46;;;;;;;14.85;7.43;;;10.40;99.90;;;;;;4979221;28;20043;-67
2022/05/25 04:24:16;;;;;;;14.20;7.70;;;10.40;99.90;;;;;;4976078;28;20049;-68
2022/05/25 04:26:41;;;;;;;12.18;7.25;;;10.40;99.90;;;;;;4975170;28;20601;-67
2022/05/25 04:29:07;;;;;;;12.60;6.60;;;10.40;99.90;;;;;;4979305;28;20084;-67
2022/05/25 04:31:32;;;;;;;11.80;7.27;;;10.50;99.90;;;;;;5000240;28;20039;-67
2022/05/25 04:33:58;;;;;;;14.07;6.87;;;10.40;99.90;;;;;;4984134;28;20034;-67
2022/05/25 04:36:24;;;;;;;14.23;6.97;;;10.50;99.90;;;;;;4984808;28;20034;-67
2022/05/25 04:38:50;;;;;;;11.57;6.35;;;10.50;99.90;;;;;;4987071;28;20121;-67
2022/05/25 04:41:15;;;;;;;12.43;6.30;;;10.50;99.90;;;;;;4982077;28;20079;-67
2022/05/25 04:43:41;;;;;;;11.67;6.83;;;10.60;99.90;;;;;;4977999;28;20396;-67
2022/05/25 04:46:09;;;;;;;10.53;5.90;;;10.60;99.90;;;;;;4964823;28;20073;-67
2022/05/25 04:48:35;;;;;;;12.00;7.18;;;10.70;99.90;;;;;;4985233;28;20179;-68
2022/05/25 04:51:00;;;;;;;13.23;6.88;;;10.60;99.90;;;;;;4981231;28;20046;-67
2022/05/25 04:53:27;;;;;;;9.03;5.80;;;10.70;99.90;;;;;;4980123;28;20038;-67
2022/05/25 04:58:42;;;;;;;12.32;6.85;;;10.80;99.90;;;;;;4981162;28;19965;-67
2022/05/25 05:01:10;;;;;;;10.07;5.82;;;10.80;99.90;;;;;;4977782;28;20177;-67
2022/05/25 05:03:36;;;;;;;13.07;6.72;;;10.80;99.90;;;;;;4985183;28;20096;-67
2022/05/25 05:06:04;;;;;;;11.05;6.38;;;10.80;99.90;;;;;;4978010;28;20579;-67
2022/05/25 05:08:30;;;;;;;11.43;6.68;;;10.90;99.90;;;;;;4974612;28;20383;-67
2022/05/25 05:10:56;;;;;;;10.10;6.07;;;10.90;99.90;;;;;;4973846;28;20047;-67
2022/05/25 05:13:23;;;;;;;10.90;6.82;;;10.90;99.90;;;;;;4980695;28;20431;-67
2022/05/25 05:15:51;;;;;;;12.63;6.72;;;11.00;99.90;;;;;;4971286;28;20133;-67
2022/05/25 05:18:19;;;;;;;9.55;5.72;;;11.00;99.90;;;;;;4985337;28;20042;-67
2022/05/25 05:20:45;;;;;;;10.13;6.78;;;11.10;99.90;;;;;;4986231;28;20408;-67
2022/05/25 05:23:11;;;;;;;12.38;6.97;;;11.10;99.90;;;;;;4982220;28;20042;-67
2022/05/25 05:25:36;;;;;;;10.50;6.15;;;11.10;99.90;;;;;;4977324;28;20196;-67
2022/05/25 05:28:24;;;;;;;10.13;5.83;;;11.20;99.90;;;;;;4978248;28;20046;-69
2022/05/25 05:30:55;;;;;;;10.45;6.32;;;11.20;99.90;;;;;;4976670;28;20065;-67
2022/05/25 05:33:22;;;;;;;9.20;5.55;;;11.30;99.90;;;;;;4974428;28;20388;-67
2022/05/25 05:35:52;;;;;;;9.68;5.63;;;11.30;99.90;;;;;;4995747;28;20046;-67
2022/05/25 05:38:20;;;;;;;9.30;5.47;;;11.40;99.90;;;;;;4978187;28;20061;-67
2022/05/25 05:40:46;;;;;;;9.65;5.47;;;11.50;99.90;;;;;;4977545;28;20558;-67
2022/05/25 05:43:12;;;;;;;10.30;6.13;;;11.50;99.90;;;;;;5002149;28;20247;-67
2022/05/25 05:45:43;;;;;;;9.65;5.68;;;11.50;99.90;;;;;;4982003;28;20333;-73
2022/05/25 05:48:15;;;;;;;8.20;5.00;;;11.60;99.90;;;;;;4974955;28;20038;-71
2022/05/25 05:50:43;;;;;;;15.50;6.10;;;11.60;99.90;;;;;;4983478;28;20049;-70
2022/05/25 05:53:11;;;;;;;8.60;5.38;;;11.70;99.90;;;;;;4981853;28;20475;-67
2022/05/25 05:55:43;;;;;;;9.57;5.35;;;11.80;99.90;;;;;;4975756;28;20043;-67
2022/05/25 05:58:09;;;;;;;8.13;5.20;;;11.80;99.90;;;;;;4977565;28;20046;-67
2022/05/25 06:00:34;;;;;;;11.40;5.45;;;11.90;99.90;;;;;;4978586;28;20109;-67
2022/05/25 06:03:01;;;;;;;8.67;5.00;;;11.90;99.90;;;;;;4975292;28;20039;-67
2022/05/25 06:05:28;;;;;;;7.05;4.50;;;12.00;99.90;;;;;;4982280;28;20549;-67
2022/05/25 06:07:53;;;;;;;7.72;5.43;;;12.00;99.90;;;;;;4975181;28;20050;-67
2022/05/25 06:10:19;;;;;;;9.03;5.57;;;12.10;99.90;;;;;;4988931;28;20047;-67
2022/05/25 06:12:46;;;;;;;7.33;4.67;;;12.20;99.90;;;;;;4985383;28;20125;-67
2022/05/25 06:20:40;;;;;;;10.98;5.38;;;12.40;99.90;;;;;;4978993;28;20411;-67
2022/05/25 06:23:06;;;;;;;7.33;4.53;;;12.50;99.90;;;;;;4978507;28;20089;-67
2022/05/25 06:25:31;;;;;;;9.20;5.23;;;12.50;99.90;;;;;;4979713;28;20369;-67
2022/05/25 06:27:57;;;;;;;9.40;5.03;;;12.60;99.90;;;;;;4973213;28;20043;-67
2022/05/25 06:30:23;;;;;;;6.93;4.43;;;12.70;99.90;;;;;;4977650;28;20108;-67
2022/05/25 06:32:48;;;;;;;7.00;4.13;;;12.70;99.90;;;;;;4973594;28;20053;-67
2022/05/25 06:35:14;;;;;;;10.03;4.63;;;12.80;99.90;;;;;;4970098;28;20096;-67
2022/05/25 06:37:40;;;;;;;9.55;4.30;;;12.90;99.90;;;;;;4966221;28;20392;-67
2022/05/25 06:40:06;;;;;;;8.60;4.47;;;13.00;99.90;;;;;;4984373;28;20126;-67
2022/05/25 06:42:32;;;;;;;7.18;4.63;;;13.00;99.90;;;;;;4998448;28;20074;-67
2022/05/25 06:44:57;;;;;;;9.40;4.30;;;13.00;99.90;;;;;;4981673;28;20511;-66
2022/05/25 06:47:23;;;;;;;7.20;4.23;;;13.10;99.90;;;;;;4978800;28;20042;-67
2022/05/25 06:49:52;;;;;;;8.63;5.00;;;13.20;99.90;;;;;;4983681;28;20042;-67
2022/05/25 06:52:18;;;;;;;10.02;4.68;;;13.30;99.90;;;;;;4982136;28;20194;-67
2022/05/25 06:54:44;;;;;;;8.97;4.90;;;13.30;99.90;;;;;;4986073;28;20429;-67
2022/05/25 06:57:09;;;;;;;10.93;4.93;;;13.40;99.90;;;;;;4966605;28;20078;-67
2022/05/25 06:59:35;;;;;;;7.37;4.10;;;13.50;99.90;;;;;;4978182;28;20057;-67
2022/05/25 07:02:00;;;;;;;10.70;5.03;;;13.60;99.90;;;;;;4971103;28;20294;-68
2022/05/25 07:04:26;;;;;;;9.37;5.10;;;13.60;99.90;;;;;;4972017;28;20129;-67
2022/05/25 07:06:51;;;;;;;11.50;5.50;;;13.70;99.90;;;;;;4979583;28;20061;-67
2022/05/25 07:09:17;;;;;;;7.70;4.83;;;13.70;99.90;;;;;;4964962;28;20368;-67
2022/05/25 07:11:43;;;;;;;8.73;4.93;;;13.80;99.90;;;;;;4977102;28;20308;-67
2022/05/25 07:14:10;;;;;;;12.67;5.17;;;13.80;99.90;;;;;;5043782;22;20499;-71
2022/05/25 07:16:36;;;;;;;9.25;4.72;;;13.80;99.90;;;;;;5030036;28;20134;-71
2022/05/25 07:19:02;;;;;;;6.15;4.32;;;13.90;99.90;;;;;;5038178;28;20033;-70
2022/05/25 07:21:31;;;;;;;;;;;13.90;99.90;;;;;;5035262;28;20119;-71
2022/05/25 07:23:57;;;;;;;10.85;4.72;;;14.00;99.90;;;;;;5026176;28;20061;-71
2022/05/25 07:26:25;;;;;;;6.82;4.72;;;14.10;99.90;;;;;;5038953;28;20481;-70
2022/05/25 07:28:51;;;;;;;8.60;5.57;;;14.20;99.90;;;;;;5023674;28;20045;-72
2022/05/25 07:31:36;;;;;;;7.55;5.18;;;14.30;99.90;;;;;;5038523;28;20048;-70
2022/05/25 07:34:10;;;;;;;7.25;4.35;;;14.40;99.90;;;;;;5026221;28;20215;-71
2022/05/25 07:36:37;;;;;;;6.68;5.20;;;14.50;99.90;;;;;;5033401;28;20077;-71
2022/05/25 07:39:13;;;;;;;8.90;5.03;;;14.50;99.90;;;;;;5031506;28;20041;-71
2022/05/25 07:41:43;;;;;;;7.33;4.27;;;14.60;99.90;;;;;;5038059;28;20037;-71
2022/05/25 07:44:14;;;;;;;5.72;4.25;;;14.60;99.90;;;;;;5013517;28;20049;-71
2022/05/25 07:46:39;;;;;;;6.00;4.53;;;14.60;99.90;;;;;;5027679;28;20043;-71
2022/05/25 07:49:05;;;;;;;7.85;4.80;;;14.60;99.90;;;;;;5043311;28;20033;-71
2022/05/25 07:51:31;;;;;;;6.77;4.80;;;14.60;99.90;;;;;;5019739;28;20037;-71
2022/05/25 07:53:58;;;;;;;8.18;4.95;;;14.60;99.90;;;;;;5041470;28;20094;-70
2022/05/25 07:56:30;;;;;;;7.70;5.28;;;14.70;99.90;;;;;;5034048;28;20433;-71
2022/05/25 07:59:01;;;;;;;7.63;5.15;;;14.80;99.90;;;;;;5005117;28;20456;-71
2022/05/25 08:07:02;;;;;;;6.78;4.60;;;15.10;99.90;;;;;;5033050;28;20045;-71
2022/05/25 08:09:29;;;;;;;5.38;3.85;;;15.20;99.90;;;;;;5025558;28;20087;-71
2022/05/25 08:11:55;;;;;;;8.95;3.58;;;15.20;99.90;;;;;;5036838;28;20076;-71
2022/05/25 08:14:25;;;;;;;6.03;3.13;;;15.30;99.90;;;;;;5039538;28;20128;-71
2022/05/25 08:16:50;;;;;;;6.45;3.30;;;15.40;99.90;;;;;;5041612;28;20037;-71
2022/05/25 08:19:16;;;;;;;6.97;3.03;;;15.50;99.90;;;;;;5015995;28;20049;-70
2022/05/25 08:21:41;;;;;;;6.50;2.70;;;15.50;99.90;;;;;;5001431;28;21867;-71
2022/05/25 08:24:07;;;;;;;4.67;2.40;;;15.60;99.90;;;;;;5017234;28;20041;-71
2022/05/25 08:26:33;;;;;;;3.58;2.42;;;15.60;99.90;;;;;;5007891;28;20037;-71
2022/05/25 08:28:58;;;;;;;3.05;2.33;;;15.60;99.90;;;;;;5036693;28;20178;-71
2022/05/25 08:31:24;;;;;;;7.30;2.40;;;15.60;99.90;;;;;;5043600;28;20041;-71
2022/05/25 08:33:50;;;;;;;4.90;2.78;;;15.60;99.90;;;;;;5047028;28;20163;-71
2022/05/25 08:36:15;;;;;;;5.40;2.40;;;15.60;99.90;;;;;;5002805;28;20045;-70
2022/05/25 08:38:41;;;;;;;3.43;2.10;;;15.60;99.90;;;;;;5033830;28;20382;-70
2022/05/25 08:41:07;;;;;;;7.10;2.00;;;15.70;99.90;;;;;;5035014;28;20404;-71
2022/05/25 08:43:44;;;;;;;;;;;15.70;99.90;;;;;;5011499;28;20525;-71
2022/05/25 08:46:14;;;;;;;4.95;2.13;;;15.70;99.90;;;;;;5035806;28;19917;-71
2022/05/25 08:48:41;;;;;;;3.90;2.25;;;15.70;99.90;;;;;;5035096;28;20955;-71
2022/05/25 08:51:17;;;;;;;4.15;2.53;;;15.80;99.90;;;;;;5035063;28;20040;-71
2022/05/25 08:53:43;;;;;;;5.68;2.70;;;15.80;99.90;;;;;;5008289;28;20137;-68
2022/05/25 08:56:32;;;;;;;4.18;2.60;;;15.90;99.90;;;;;;5039570;28;20093;-68
2022/05/25 08:59:24;;;;;;;5.97;2.65;;;15.90;99.90;;;;;;5023051;28;20420;-68
2022/05/25 09:02:26;;;;;;;5.13;2.55;;;15.90;99.90;;;;;;5026861;28;20469;-68
2022/05/25 09:05:01;;;;;;;3.60;2.70;;;16.10;99.90;;;;;;5044585;28;20163;-68
2022/05/25 09:07:36;;;;;;;6.90;3.05;;;16.20;99.90;;;;;;5043953;28;20146;-68
2022/05/25 09:10:03;;;;;;;4.35;3.33;;;16.30;99.90;;;;;;5016062;28;20056;-68
2022/05/25 09:12:37;;;;;;;5.80;2.58;;;16.40;99.90;;;;;;5043548;28;20357;-68
2022/05/25 09:15:23;;;;;;;6.68;3.00;;;16.40;99.90;;;;;;5027198;28;20053;-69
2022/05/25 09:17:54;;;;;;;5.22;3.58;;;16.30;99.90;;;;;;5045450;28;20053;-69
2022/05/25 09:20:35;;;;;;;5.47;3.55;;;16.20;99.90;;;;;;5026893;28;20056;-69
2022/05/25 09:23:00;;;;;;;5.15;3.47;;;16.20;99.90;;;;;;5027343;28;20535;-68
2022/05/25 09:25:26;;;;;;;7.07;4.85;;;16.20;99.90;;;;;;5045648;28;20029;-68
2022/05/25 09:28:11;;;;;;;9.30;4.40;;;16.20;99.90;;;;;;5041687;28;20486;-68
2022/05/25 09:30:41;;;;;;;8.70;4.07;;;16.20;99.90;;;;;;5026789;28;20056;-68
2022/05/25 09:33:31;;;;;;;6.68;3.67;;;16.20;99.90;;;;;;5048310;28;20566;-68
2022/05/25 09:36:07;;;;;;;6.20;3.80;;;16.20;99.90;;;;;;5027925;28;20052;-68
2022/05/25 09:38:46;;;;;;;10.13;3.70;;;16.30;99.90;;;;;;5048477;28;20501;-68
2022/05/25 09:41:14;;;;;;;8.00;4.10;;;16.40;99.90;;;;;;5029453;28;20537;-69
2022/05/25 09:43:43;;;;;;;5.55;4.20;;;16.50;99.90;;;;;;5048529;28;20385;-68
2022/05/25 09:46:27;;;;;;;5.15;2.83;;;16.50;99.90;;;;;;5047612;28;20048;-68
2022/05/25 09:49:02;;;;;;;5.63;2.95;;;16.60;99.90;;;;;;5046771;28;20067;-68
2022/05/25 09:51:41;;;;;;;5.55;3.10;;;16.60;99.90;;;;;;5027927;28;20041;-68
2022/05/25 09:54:48;;;;;;;4.40;3.20;;;16.50;99.90;;;;;;5060109;28;20049;-69
2022/05/25 09:57:31;;;;;;;4.45;2.85;;;16.40;99.90;;;;;;4948901;28;20082;-68
2022/05/25 10:00:06;;;;;;;5.63;3.95;;;16.40;99.90;;;;;;4941620;29;20516;-68
2022/05/25 10:02:58;;;;;;;5.85;4.22;;;16.30;99.90;;;;;;5013701;28;20077;-68
2022/05/25 10:05:32;;;;;;;8.32;5.03;;;16.30;99.90;;;;;;5028179;28;20177;-68
2022/05/25 10:08:03;;;;;;;7.70;4.75;;;16.30;99.90;;;;;;5027984;28;20055;-68
2022/05/25 10:10:56;;;;;;;7.20;4.60;;;16.30;99.90;;;;;;5042488;28;20472;-68
2022/05/25 10:13:46;;;;;;;6.80;5.28;;;16.30;99.90;;;;;;5043575;28;20053;-69
2022/05/25 10:16:30;;;;;;;7.72;3.63;;;16.30;99.90;;;;;;5044260;28;20125;-69
2022/05/25 10:19:00;;;;;;;5.18;3.83;;;16.30;99.90;;;;;;5006001;28;20630;-68
2022/05/25 10:21:36;;;;;;;7.25;4.65;;;16.30;99.90;;;;;;5028825;28;20055;-68
2022/05/25 10:24:12;;;;;;;7.72;4.47;;;16.20;99.90;;;;;;5020045;28;20423;-68
2022/05/25 10:26:45;;;;;;;7.60;5.28;;;16.10;99.90;;;;;;5047439;28;20031;-68
2022/05/25 10:36:45;;;;;;;10.25;5.93;;;16.00;99.90;;;;;;5032846;28;20064;-69
2022/05/25 10:38:38;;;;;;;2.67;1.42;;;15.70;99.90;;;;;;5048988;28;20540;-68
2022/05/25 10:41:37;;;;;;;2.25;1.35;;;15.30;99.90;;;;;;5030133;28;20055;-67
2022/05/25 10:44:05;;;;;;;3.00;1.80;;;15.00;99.90;;;;;;5049294;28;20079;-67
2022/05/25 10:46:31;;;;;;;2.40;1.60;;;14.80;99.90;;;;;;5031677;28;20488;-68
2022/05/25 10:49:09;;;;;;;3.10;1.83;;;14.70;99.90;;;;;;5032217;28;20041;-68
2022/05/25 10:51:42;;;;;;;3.30;2.10;;;14.70;99.90;;;;;;5048293;28;20402;-67
2022/05/25 10:57:32;;;;;;;6.05;4.00;;;14.70;99.90;;;;;;5047191;28;20434;-67
2022/05/25 11:00:19;;;;;;;8.02;4.93;;;14.80;99.90;;;;;;5039861;28;20045;-67
2022/05/25 11:03:07;;;;;;;9.75;5.97;;;14.90;99.90;;;;;;5013643;28;20077;-68
2022/05/25 11:05:44;;;;;;;;;;;15.10;99.90;;;;;;5014911;28;20041;-68
2022/05/25 11:08:19;;;;;;;9.20;5.35;;;15.20;99.90;;;;;;5030419;28;19921;-68
2022/05/25 11:10:56;;;;;;;11.02;5.80;;;15.30;99.90;;;;;;5029571;28;20048;-68
2022/05/25 11:13:47;;;;;;;9.98;5.85;;;15.40;99.90;;;;;;5038628;28;20048;-68
2022/05/25 11:16:29;;;;;;;8.30;6.25;;;15.60;99.90;;;;;;5048284;28;20045;-69
2022/05/25 11:19:35;;;;;;;7.55;4.75;;;15.70;99.90;;;;;;5040889;28;20055;-68
2022/05/25 11:22:18;;;;;;;6.45;4.22;;;16.10;99.90;;;;;;5022521;28;20048;-68
2022/05/25 11:25:15;;;;;;;10.88;4.25;;;16.40;99.90;;;;;;5048729;28;20354;-68
2022/05/25 11:27:51;;;;;;;3.20;2.33;;;16.70;99.90;;;;;;5046555;28;20606;-69
2022/05/25 11:30:59;;;;;;;2.78;1.40;;;17.10;99.90;;;;;;5030534;28;20377;-68
2022/05/25 11:34:02;;;;;;;1.45;0.73;;;17.30;99.90;;;;;;5036276;28;20099;-68
2022/05/25 11:36:54;;;;;;;4.20;1.17;;;17.40;99.90;;;;;;5029687;28;20074;-68
2022/05/25 11:39:58;;;;;;;2.10;0.55;;;17.50;96.30;;;;;;5048269;28;20494;-68
2022/05/25 11:42:59;;;;;;;0.73;0.40;;;17.50;99.50;;;;;;5047528;28;20037;-68
2022/05/25 11:45:43;;;;;;;1.60;0.40;;;17.70;99.90;;;;;;4983463;28;20389;-68
2022/05/25 11:48:21;;;;;;;1.00;0.20;;;17.70;93.60;;;;;;5023012;28;20044;-71
2022/05/25 11:51:25;;;;;;;0.75;0.30;;;17.60;94.00;;;;;;5029528;28;20053;-72
2022/05/25 11:54:09;;;;;;;1.65;0.35;;;17.70;96.30;;;;;;5035239;28;20048;-71
2022/05/25 11:57:03;;;;;;;2.08;0.20;;;17.70;91.00;;;;;;5005721;28;20037;-69
2022/05/25 11:59:56;;;;;;;1.40;0.77;;;17.70;94.30;;;;;;5043682;28;20072;-70
2022/05/25 12:02:34;;;;;;;1.20;0.30;;;17.70;93.10;;;;;;5037642;28;20379;-68
2022/05/25 12:05:19;;;;;;;0.63;0.28;;;17.70;95.40;;;;;;5020307;28;20052;-75
2022/05/25 12:08:09;;;;;;;1.45;0.40;;;17.70;76.30;;;;;;5046025;28;20078;-68
2022/05/25 12:10:42;;;;;;;1.55;0.50;;;17.70;77.30;;;;;;5024984;28;20049;-68
2022/05/25 12:13:33;;;;;;;2.42;0.50;;;17.60;71.70;;;;;;5020933;28;20083;-68
2022/05/25 12:16:17;;;;;;;1.25;0.50;;;17.60;79.00;;;;;;5044836;28;20048;-71
2022/05/25 12:18:58;;;;;;;2.92;0.35;;;17.60;85.40;;;;;;5037408;28;20430;-71
2022/05/25 12:21:30;;;;;;;1.92;0.20;;;17.70;76.70;;;;;;5038273;28;20682;-70
2022/05/25 12:24:07;;;;;;;0.68;0.17;;;17.70;78.80;;;;;;5043845;28;20033;-68
2022/05/25 12:26:37;;;;;;;2.55;0.43;;;17.70;81.10;;;;;;5047035;28;20041;-69
2022/05/25 12:29:24;;;;;;;1.40;0.30;;;17.80;79.20;;;;;;5046348;28;20051;-68
2022/05/25 12:31:53;;;;;;;1.00;0.20;;;17.80;74.60;;;;;;5042721;28;20041;-68
2022/05/25 12:34:35;;;;;;;0.70;0.40;;;17.80;74.80;;;;;;5046766;28;20040;-68
2022/05/25 12:37:03;;;;;;;3.20;0.60;;;17.80;78.00;;;;;;5044421;28;20257;-69
2022/05/25 12:39:46;;;;;;;0.40;0.40;;;17.60;80.80;;;;;;5047317;28;20240;-69
2022/05/25 12:42:24;;;;;;;2.28;0.50;;;17.60;81.90;;;;;;5046859;28;20128;-68
2022/05/25 12:50:49;;;;;;;3.05;0.38;;;17.70;88.50;;;;;;5048357;28;20056;-69
2022/05/25 12:53:40;;;;;;;2.70;0.52;;;17.80;78.30;;;;;;5038975;28;20382;-68
2022/05/25 12:56:23;;;;;;;2.20;0.70;;;17.80;81.30;;;;;;5031394;28;20041;-69
2022/05/25 12:58:52;;;;;;;1.63;0.50;;;17.90;90.10;;;;;;5032291;28;20048;-68
2022/05/25 13:01:23;;;;;;;1.67;0.50;;;17.90;89.80;;;;;;5051452;28;20420;-69
2022/05/25 13:03:49;;;;;;;2.63;0.63;;;17.90;80.30;;;;;;5050517;28;20060;-69
2022/05/25 13:06:42;;;;;;;1.88;0.50;;;17.80;86.90;;;;;;5050334;28;20393;-68
2022/05/25 13:09:40;;;;;;;1.73;0.22;;;17.70;92.10;;;;;;5044432;28;20037;-69
2022/05/25 13:17:43;;;;;;;1.52;0.60;;;17.60;90.50;;;;;;5024102;28;20410;-70
2022/05/25 13:20:14;;;;;;;1.05;0.50;;;17.40;90.40;;;;;;5009609;28;20037;-70
2022/05/25 13:22:39;;;;;;;2.17;0.30;;;17.40;92.20;;;;;;5006778;28;20050;-70
2022/05/25 13:25:25;;;;;;;0.98;0.35;;;17.30;93.80;;;;;;5015403;28;20042;-71
2022/05/25 13:28:15;;;;;;;4.25;0.55;;;17.30;94.30;;;;;;5028156;28;20048;-70
2022/05/25 13:31:08;;;;;;;1.98;0.50;;;17.30;95.50;;;;;;5001580;28;20091;-70
2022/05/25 13:33:45;;;;;;;2.25;0.43;;;17.40;94.40;;;;;;5012301;28;20096;-70
2022/05/25 13:36:22;;;;;;;0.73;0.40;;;17.50;96.20;;;;;;5027980;28;20084;-70
2022/05/25 13:39:01;;;;;;;4.43;0.60;;;17.50;93.70;;;;;;5032709;28;20042;-70
2022/05/25 13:41:32;;;;;;;5.93;0.52;;;17.50;92.90;;;;;;5013297;28;20308;-70
2022/05/25 13:43:57;;;;;;;1.70;0.40;;;17.40;92.00;;;;;;5022903;28;20120;-70
2022/05/25 13:46:32;;;;;;;2.80;0.30;;;17.30;91.80;;;;;;5013087;28;20136;-70
2022/05/25 13:48:58;;;;;;;2.75;0.50;;;17.30;92.10;;;;;;5028976;28;20180;-70
2022/05/25 13:51:24;;;;;;;3.40;0.50;;;17.30;94.30;;;;;;5030032;28;20439;-70
2022/05/25 13:53:51;;;;;;;1.15;0.40;;;17.30;96.50;;;;;;5014200;28;20121;-70
2022/05/25 13:56:27;;;;;;;0.70;0.30;;;17.30;95.70;;;;;;5030286;28;20045;-70
2022/05/25 13:58:59;;;;;;;1.23;0.30;;;17.20;94.20;;;;;;5012010;28;20053;-70
2022/05/25 14:01:25;;;;;;;3.45;0.40;;;17.20;96.20;;;;;;5027909;28;20103;-70
2022/05/25 14:04:12;;;;;;;3.30;0.45;;;17.20;97.50;;;;;;5026695;28;20577;-70
2022/05/25 14:06:43;;;;;;;1.83;0.40;;;17.20;97.40;;;;;;5024412;28;20049;-70